createdAt,value
2022-08-08T00:00:53.449Z,102638.91
2022-08-08T00:03:32.499Z,102635.69
2022-08-08T00:06:35.329Z,102635.03
2022-08-08T00:09:08.225Z,102634.31
2022-08-08T00:11:46.538Z,102637.97
2022-08-08T00:14:57.569Z,102639.06
2022-08-08T00:18:01.831Z,102636.59
2022-08-08T00:20:49.494Z,102634.19
2022-08-08T00:23:42.836Z,102636.13
2022-08-08T00:26:38.672Z,102630.19
2022-08-08T00:29:15.111Z,102623.19
2022-08-08T00:32:28.647Z,102623.34
2022-08-08T00:35:00.615Z,102620.97
2022-08-08T00:37:47.148Z,102623.91
2022-08-08T00:41:07.834Z,102630.25
2022-08-08T00:43:46.135Z,102633.13
2022-08-08T00:47:14.121Z,102620.28
2022-08-08T00:50:14.183Z,102612.69
2022-08-08T00:52:54.004Z,102621.66
2022-08-08T00:55:53.672Z,102618.34
2022-08-08T00:58:55.309Z,102618.50
2022-08-08T01:01:38.809Z,102627.38
2022-08-08T01:04:17.704Z,102621.47
2022-08-08T01:07:55.979Z,102633.00
2022-08-08T01:10:39.951Z,102626.19
2022-08-08T01:13:43.742Z,102624.63
2022-08-08T01:16:50.054Z,102633.59
2022-08-08T01:20:02.703Z,102635.38
2022-08-08T01:22:48.597Z,102626.16
2022-08-08T01:25:17.439Z,102618.41
2022-08-08T01:28:02.632Z,102629.03
2022-08-08T01:30:53.592Z,102632.72
2022-08-08T01:33:43.162Z,102633.81
2022-08-08T01:36:48.661Z,102636.72
2022-08-08T01:39:24.277Z,102628.13
2022-08-08T01:42:02.820Z,102637.09
2022-08-08T01:44:54.806Z,102637.31
2022-08-08T01:48:15.046Z,102634.81
2022-08-08T01:50:26.710Z,102631.31
2022-08-08T01:55:14.650Z,102629.72
2022-08-08T01:56:47.742Z,102630.69
2022-08-08T02:00:02.346Z,102632.53
2022-08-08T02:02:41.492Z,102635.28
2022-08-08T02:05:55.927Z,102628.34
2022-08-08T02:08:52.078Z,102627.63
2022-08-08T02:11:59.972Z,102625.16
2022-08-08T02:14:55.859Z,102625.28
2022-08-08T02:17:42.487Z,102642.09
2022-08-08T02:21:03.258Z,102632.66
2022-08-08T02:23:18.432Z,102633.75
2022-08-08T02:26:10.233Z,102633.78
2022-08-08T02:29:01.149Z,102635.69
2022-08-08T02:32:05.480Z,102626.25
2022-08-08T02:35:11.350Z,102634.13
2022-08-08T02:38:25.256Z,102635.34
2022-08-08T02:41:17.940Z,102635.50
2022-08-08T02:44:38.506Z,102626.03
2022-08-08T02:47:04.478Z,102633.03
2022-08-08T02:49:52.729Z,102631.41
2022-08-08T02:52:50.697Z,102625.44
2022-08-08T02:55:23.691Z,102630.75
2022-08-08T02:58:14.887Z,102633.50
2022-08-08T03:01:03.625Z,102632.72
2022-08-08T03:05:03.475Z,102626.69
2022-08-08T03:07:22.885Z,102629.44
2022-08-08T03:10:32.782Z,102631.25
2022-08-08T03:15:54.225Z,102633.16
2022-08-08T03:16:35.425Z,102634.19
2022-08-08T03:19:26.615Z,102639.56
2022-08-08T03:21:58.166Z,102640.50
2022-08-08T03:24:25.695Z,102648.47
2022-08-08T03:26:58.686Z,102648.59
2022-08-08T03:29:55.017Z,102650.47
2022-08-08T03:32:41.243Z,102655.75
2022-08-08T03:35:09.803Z,102653.22
2022-08-08T03:37:59.701Z,102655.03
2022-08-08T03:40:29.364Z,102654.19
2022-08-08T03:42:58.633Z,102646.50
2022-08-08T03:46:05.133Z,102650.13
2022-08-08T03:49:09.720Z,102650.16
2022-08-08T03:51:16.940Z,102657.25
2022-08-08T03:53:47.699Z,102658.22
2022-08-08T03:56:31.281Z,102657.41
2022-08-08T03:58:58.851Z,102660.13
2022-08-08T04:02:31.621Z,102658.41
2022-08-08T04:04:30.702Z,102674.28
2022-08-08T04:07:01.233Z,102682.13
2022-08-08T04:09:30.821Z,102681.25
2022-08-08T04:12:15.927Z,102688.28
2022-08-08T04:14:45.022Z,102686.50
2022-08-08T04:17:15.451Z,102685.66
2022-08-08T04:19:49.440Z,102687.38
2022-08-08T04:22:18.405Z,102683.88
2022-08-08T04:24:50.782Z,102691.69
2022-08-08T04:27:42.838Z,102684.47
2022-08-08T04:30:17.943Z,102694.00
2022-08-08T04:32:47.998Z,102690.44
2022-08-08T04:35:16.958Z,102695.69
2022-08-08T04:37:43.464Z,102686.97
2022-08-08T04:40:12.378Z,102700.91
2022-08-08T04:42:46.905Z,102698.31
2022-08-08T04:45:23.405Z,102700.94
2022-08-08T04:47:52.334Z,102701.88
2022-08-08T04:50:24.152Z,102703.56
2022-08-08T04:53:01.186Z,102706.19
2022-08-08T04:55:47.677Z,102699.13
2022-08-08T04:58:19.715Z,102701.69
2022-08-08T05:00:48.483Z,102693.75
2022-08-08T05:04:06.477Z,102698.91
2022-08-08T05:06:13.295Z,102702.22
2022-08-08T05:08:41.822Z,102702.16
2022-08-08T05:11:17.400Z,102703.69
2022-08-08T05:13:57.901Z,102709.59
2022-08-08T05:16:50.813Z,102710.22
2022-08-08T05:20:11.494Z,102713.38
2022-08-08T05:22:01.875Z,102715.75
2022-08-08T05:24:28.429Z,102719.75
2022-08-08T05:26:57.818Z,102720.34
2022-08-08T05:29:27.040Z,102721.94
2022-08-08T05:32:03.577Z,102723.38
2022-08-08T05:34:41.216Z,102716.94
2022-08-08T05:37:17.138Z,102713.97
2022-08-08T05:39:54.475Z,102720.59
2022-08-08T05:42:40.885Z,102711.38
2022-08-08T05:45:10.317Z,102720.06
2022-08-08T05:48:00.151Z,102721.53
2022-08-08T05:50:33.575Z,102728.13
2022-08-08T05:53:53.584Z,102723.31
2022-08-08T05:56:10.544Z,102733.41
2022-08-08T05:58:39.853Z,102727.41
2022-08-08T06:01:55.953Z,102718.69
2022-08-08T06:04:23.251Z,102716.53
2022-08-08T06:06:56.513Z,102712.16
2022-08-08T06:10:00.267Z,102720.47
2022-08-08T06:12:31.058Z,102718.56
2022-08-08T06:15:03.242Z,102726.06
2022-08-08T06:17:51.079Z,102727.72
2022-08-08T06:20:19.687Z,102722.75
2022-08-08T06:22:49.372Z,102727.75
2022-08-08T06:25:17.993Z,102725.28
2022-08-08T06:27:51.307Z,102732.50
2022-08-08T06:30:28.845Z,102735.03
2022-08-08T06:32:57.191Z,102733.19
2022-08-08T06:36:08.636Z,102736.25
2022-08-08T06:38:18.747Z,102732.13
2022-08-08T06:40:54.028Z,102737.09
2022-08-08T06:43:28.433Z,102739.03
2022-08-08T06:45:57.828Z,102741.19
2022-08-08T06:48:26.783Z,102741.28
2022-08-08T06:50:55.661Z,102737.72
2022-08-08T06:53:22.775Z,102741.88
2022-08-08T06:56:02.802Z,102736.44
2022-08-08T06:58:33.339Z,102741.09
2022-08-08T07:01:24.443Z,102738.69
2022-08-08T07:03:52.701Z,102741.00
2022-08-08T07:06:38.518Z,102742.69
2022-08-08T07:09:15.248Z,102745.09
2022-08-08T07:11:50.957Z,102743.81
2022-08-08T07:14:26.745Z,102746.59
2022-08-08T07:17:14.272Z,102753.63
2022-08-08T07:19:48.470Z,102756.69
2022-08-08T07:22:24.704Z,102760.94
2022-08-08T07:24:57.447Z,102756.91
2022-08-08T07:27:46.964Z,102752.47
2022-08-08T07:30:21.308Z,102754.59
2022-08-08T07:32:53.455Z,102761.13
2022-08-08T07:35:21.527Z,102761.38
2022-08-08T07:38:04.844Z,102770.34
2022-08-08T07:40:37.461Z,102764.50
2022-08-08T07:43:08.781Z,102758.94
2022-08-08T07:46:04.886Z,102765.06
2022-08-08T07:48:23.560Z,102766.78
2022-08-08T07:50:52.301Z,102765.38
2022-08-08T07:54:01.021Z,102766.16
2022-08-08T07:56:36.910Z,102762.09
2022-08-08T07:59:08.911Z,102761.44
2022-08-08T08:02:36.488Z,102762.47
2022-08-08T08:04:33.669Z,102764.06
2022-08-08T08:07:08.777Z,102767.03
2022-08-08T08:09:40.203Z,102769.63
2022-08-08T08:12:10.052Z,102769.38
2022-08-08T08:15:07.124Z,102770.19
2022-08-08T08:17:47.780Z,102774.59
2022-08-08T08:20:17.664Z,102772.69
2022-08-08T08:22:45.005Z,102770.19
2022-08-08T08:25:16.996Z,102766.13
2022-08-08T08:27:46.533Z,102776.53
2022-08-08T08:30:14.126Z,102772.56
2022-08-08T08:32:49.392Z,102772.78
2022-08-08T08:35:18.379Z,102784.78
2022-08-08T08:38:14.444Z,102784.88
2022-08-08T08:40:37.574Z,102774.56
2022-08-08T08:43:10.192Z,102784.47
2022-08-08T08:45:43.708Z,102791.03
2022-08-08T08:48:10.814Z,102785.38
2022-08-08T08:50:52.393Z,102788.94
2022-08-08T08:53:28.263Z,102790.19
2022-08-08T08:56:07.772Z,102789.78
2022-08-08T08:58:38.050Z,102790.00
2022-08-08T09:01:09.703Z,102793.38
2022-08-08T09:03:46.878Z,102792.44
2022-08-08T09:06:28.789Z,102793.81
2022-08-08T09:09:03.064Z,102780.69
2022-08-08T09:11:33.897Z,102784.84
2022-08-08T09:14:04.231Z,102774.66
2022-08-08T09:16:33.138Z,102785.31
2022-08-08T09:18:59.774Z,102786.94
2022-08-08T09:22:01.322Z,102776.41
2022-08-08T09:24:14.926Z,102781.63
2022-08-08T09:27:20.104Z,102775.06
2022-08-08T09:30:06.601Z,102771.44
2022-08-08T09:32:50.320Z,102782.47
2022-08-08T09:35:31.918Z,102781.53
2022-08-08T09:38:05.840Z,102781.84
2022-08-08T09:40:46.559Z,102781.78
2022-08-08T09:44:04.977Z,102774.28
2022-08-08T09:46:30.649Z,102781.63
2022-08-08T09:49:18.673Z,102778.25
2022-08-08T09:52:06.375Z,102777.84
2022-08-08T09:54:44.592Z,102784.63
2022-08-08T09:57:16.226Z,102795.66
2022-08-08T10:00:01.907Z,102789.38
2022-08-08T10:02:45.047Z,102785.88
2022-08-08T10:05:22.764Z,102789.16
2022-08-08T10:07:51.812Z,102792.44
2022-08-08T10:10:30.344Z,102797.19
2022-08-08T10:13:14.266Z,102796.13
2022-08-08T10:16:00.895Z,102799.13
2022-08-08T10:18:32.886Z,102801.41
2022-08-08T10:21:25.405Z,102793.59
2022-08-08T10:23:58.670Z,102790.72
2022-08-08T10:26:30.549Z,102799.94
2022-08-08T10:29:06.491Z,102798.91
2022-08-08T10:31:56.712Z,102801.13
2022-08-08T10:34:28.649Z,102797.19
2022-08-08T10:36:59.701Z,102800.53
2022-08-08T10:39:43.484Z,102795.34
2022-08-08T10:42:19.060Z,102789.28
2022-08-08T10:44:49.391Z,102794.91
2022-08-08T10:47:20.969Z,102781.81
2022-08-08T10:50:02.642Z,102788.97
2022-08-08T10:52:36.694Z,102788.13
2022-08-08T10:55:39.818Z,102792.69
2022-08-08T10:58:07.587Z,102789.78
2022-08-08T11:00:40.745Z,102793.53
2022-08-08T11:03:18.924Z,102788.22
2022-08-08T11:06:06.511Z,102779.91
2022-08-08T11:08:49.955Z,102769.38
2022-08-08T11:11:32.612Z,102773.84
2022-08-08T11:14:07.615Z,102770.66
2022-08-08T11:16:46.934Z,102775.75
2022-08-08T11:19:15.763Z,102766.94
2022-08-08T11:21:55.748Z,102768.88
2022-08-08T11:24:27.241Z,102767.41
2022-08-08T11:27:01.443Z,102761.66
2022-08-08T11:30:18.511Z,102758.19
2022-08-08T11:32:47.586Z,102760.03
2022-08-08T11:35:27.868Z,102759.72
2022-08-08T11:38:38.535Z,102761.16
2022-08-08T11:40:52.435Z,102762.28
2022-08-08T11:43:21.712Z,102748.00
2022-08-08T11:46:13.553Z,102747.00
2022-08-08T11:48:39.617Z,102747.59
2022-08-08T11:51:38.383Z,102750.38
2022-08-08T11:53:58.943Z,102750.22
2022-08-08T11:56:33.223Z,102750.31
2022-08-08T11:59:11.803Z,102747.03
2022-08-08T12:01:39.192Z,102750.19
2022-08-08T12:04:08.120Z,102756.28
2022-08-08T12:06:34.849Z,102740.09
2022-08-08T12:09:09.246Z,102749.06
2022-08-08T12:11:41.904Z,102745.78
2022-08-08T12:14:10.977Z,102751.53
2022-08-08T12:16:49.165Z,102746.69
2022-08-08T12:19:15.959Z,102741.19
2022-08-08T12:21:59.514Z,102741.25
2022-08-08T12:24:51.332Z,102742.56
2022-08-08T12:27:20.740Z,102745.75
2022-08-08T12:29:59.988Z,102742.69
2022-08-08T12:32:31.402Z,102732.03
2022-08-08T12:35:04.152Z,102738.06
2022-08-08T12:37:41.173Z,102735.00
2022-08-08T12:40:22.652Z,102737.34
2022-08-08T12:42:52.651Z,102733.84
2022-08-08T12:45:54.042Z,102724.91
2022-08-08T12:48:37.392Z,102729.75
2022-08-08T12:51:04.850Z,102722.34
2022-08-08T12:53:36.540Z,102728.34
2022-08-08T12:56:19.281Z,102723.09
2022-08-08T12:58:52.058Z,102731.22
2022-08-08T13:01:29.562Z,102724.34
2022-08-08T13:04:18.504Z,102732.06
2022-08-08T13:07:11.779Z,102732.38
2022-08-08T13:10:04.118Z,102726.25
2022-08-08T13:12:36.066Z,102722.81
2022-08-08T13:15:09.845Z,102723.38
2022-08-08T13:18:08.748Z,102716.38
2022-08-08T13:20:25.967Z,102731.84
2022-08-08T13:23:29.977Z,102731.03
2022-08-08T13:25:43.532Z,102724.13
2022-08-08T13:28:10.128Z,102721.75
2022-08-08T13:30:36.775Z,102720.91
2022-08-08T13:33:03.982Z,102719.78
2022-08-08T13:35:41.099Z,102723.47
2022-08-08T13:38:13.076Z,102719.06
2022-08-08T13:40:45.215Z,102720.34
2022-08-08T13:43:16.132Z,102719.53
2022-08-08T13:45:43.217Z,102711.22
2022-08-08T13:48:15.721Z,102718.81
2022-08-08T13:50:50.977Z,102717.69
2022-08-08T13:53:36.301Z,102716.97
2022-08-08T13:56:11.653Z,102719.53
2022-08-08T13:58:57.699Z,102721.47
2022-08-08T14:01:41.656Z,102714.56
2022-08-08T14:04:21.943Z,102714.25
2022-08-08T14:06:48.770Z,102720.66
2022-08-08T14:09:25.152Z,102725.03
2022-08-08T14:12:20.762Z,102721.59
2022-08-08T14:14:55.703Z,102710.59
2022-08-08T14:17:57.410Z,102717.22
2022-08-08T14:20:56.460Z,102717.25
2022-08-08T14:24:04.548Z,102713.44
2022-08-08T14:26:33.371Z,102717.97
2022-08-08T14:29:04.908Z,102716.22
2022-08-08T14:32:08.933Z,102712.72
2022-08-08T14:34:52.337Z,102715.00
2022-08-08T14:38:33.514Z,102717.69
2022-08-08T14:41:54.049Z,102715.16
2022-08-08T14:44:35.532Z,102712.25
2022-08-08T14:47:17.339Z,102720.25
2022-08-08T14:50:22.522Z,102716.88
2022-08-08T14:53:06.411Z,102720.78
2022-08-08T14:56:07.252Z,102713.03
2022-08-08T14:58:45.770Z,102705.78
2022-08-08T15:01:37.463Z,102714.69
2022-08-08T15:04:13.669Z,102719.84
2022-08-08T15:06:45.889Z,102718.25
2022-08-08T15:09:27.193Z,102723.78
2022-08-08T15:14:40.276Z,102719.31
2022-08-08T15:17:21.528Z,102727.69
2022-08-08T15:19:52.858Z,102712.72
2022-08-08T15:22:29.837Z,102713.44
2022-08-08T15:25:29.160Z,102712.38
2022-08-08T15:28:33.532Z,102709.88
2022-08-08T15:31:21.701Z,102711.69
2022-08-08T15:34:08.437Z,102711.66
2022-08-08T15:39:38.207Z,102706.59
2022-08-08T15:42:31.809Z,102710.41
2022-08-08T15:45:06.346Z,102703.28
2022-08-08T15:48:11.023Z,102700.44
2022-08-08T15:51:02.047Z,102701.59
2022-08-08T15:53:50.084Z,102710.16
2022-08-08T15:56:25.974Z,102713.16
2022-08-08T15:59:07.393Z,102708.09
2022-08-08T16:02:00.010Z,102716.69
2022-08-08T16:04:33.606Z,102707.06
2022-08-08T16:07:05.062Z,102709.31
2022-08-08T16:13:09.023Z,102707.63
2022-08-08T16:13:14.924Z,102709.44
2022-08-08T16:15:25.821Z,102708.72
2022-08-08T16:18:11.766Z,102710.56
2022-08-08T16:20:51.079Z,102708.09
2022-08-08T16:23:49.083Z,102712.75
2022-08-08T16:26:58.325Z,102707.72
2022-08-08T16:29:37.703Z,102704.31
2022-08-08T16:32:27.749Z,102718.03
2022-08-08T16:35:18.845Z,102714.72
2022-08-08T16:38:31.339Z,102709.66
2022-08-08T16:41:11.010Z,102709.09
2022-08-08T16:44:00.288Z,102714.31
2022-08-08T16:46:45.920Z,102703.06
2022-08-08T16:49:38.571Z,102709.13
2022-08-08T16:55:00.060Z,102702.22
2022-08-08T16:55:54.208Z,102700.00
2022-08-08T16:58:17.800Z,102696.84
2022-08-08T17:00:53.390Z,102690.81
2022-08-08T17:03:25.239Z,102694.31
2022-08-08T17:06:36.823Z,102689.66
2022-08-08T17:09:45.203Z,102698.03
2022-08-08T17:18:13.793Z,102694.28
2022-08-08T17:23:58.586Z,102697.72
2022-08-08T17:26:35.381Z,102696.59
2022-08-08T17:29:04.041Z,102704.59
2022-08-08T17:31:44.768Z,102706.88
2022-08-08T17:34:53.144Z,102709.31
2022-08-08T17:37:03.539Z,102713.41
2022-08-08T17:40:03.953Z,102729.28
2022-08-08T17:42:20.436Z,102722.41
2022-08-08T17:44:50.558Z,102737.06
2022-08-08T17:47:23.808Z,102728.00
2022-08-08T17:50:01.280Z,102737.56
2022-08-08T17:52:34.325Z,102740.31
2022-08-08T17:55:05.232Z,102741.44
2022-08-08T17:57:35.613Z,102733.88
2022-08-08T18:00:05.028Z,102746.25
2022-08-08T18:02:40.253Z,102742.50
2022-08-08T18:05:14.738Z,102745.97
2022-08-08T18:08:04.011Z,102739.63
2022-08-08T18:10:31.757Z,102739.03
2022-08-08T18:12:58.457Z,102743.28
2022-08-08T18:15:25.112Z,102739.09
2022-08-08T18:18:04.951Z,102746.50
2022-08-08T18:20:55.021Z,102749.66
2022-08-08T18:23:25.956Z,102745.94
2022-08-08T18:25:53.069Z,102748.25
2022-08-08T18:28:23.531Z,102751.47
2022-08-08T18:30:52.326Z,102749.81
2022-08-08T18:33:36.342Z,102749.56
2022-08-08T18:36:04.213Z,102760.06
2022-08-08T18:38:32.262Z,102762.50
2022-08-08T18:41:00.891Z,102758.88
2022-08-08T18:43:37.756Z,102758.25
2022-08-08T18:46:55.276Z,102762.34
2022-08-08T18:48:56.624Z,102766.94
2022-08-08T18:51:48.449Z,102769.19
2022-08-08T18:54:22.848Z,102763.25
2022-08-08T18:56:56.958Z,102771.69
2022-08-08T18:59:23.478Z,102775.88
2022-08-08T19:02:26.610Z,102775.38
2022-08-08T19:04:36.584Z,102783.41
2022-08-08T19:07:03.672Z,102781.13
2022-08-08T19:09:49.658Z,102785.69
2022-08-08T19:12:18.285Z,102793.88
2022-08-08T19:14:46.569Z,102792.72
2022-08-08T19:17:13.353Z,102794.03
2022-08-08T19:20:03.040Z,102796.06
2022-08-08T19:22:33.173Z,102803.28
2022-08-08T19:25:08.648Z,102814.31
2022-08-08T19:27:56.003Z,102808.72
2022-08-08T19:30:26.409Z,102815.22
2022-08-08T19:32:53.502Z,102819.91
2022-08-08T19:35:25.646Z,102820.13
2022-08-08T19:38:06.482Z,102819.81
2022-08-08T19:40:36.693Z,102824.81
2022-08-08T19:43:03.397Z,102831.41
2022-08-08T19:45:58.742Z,102830.00
2022-08-08T19:48:28.712Z,102824.19
2022-08-08T19:50:59.261Z,102830.06
2022-08-08T19:53:53.125Z,102836.50
2022-08-08T19:56:16.289Z,102838.00
2022-08-08T19:58:51.781Z,102839.44
2022-08-08T20:01:22.685Z,102840.59
2022-08-08T20:04:02.193Z,102851.41
2022-08-08T20:06:29.751Z,102847.38
2022-08-08T20:08:56.766Z,102849.38
2022-08-08T20:11:24.574Z,102846.41
2022-08-08T20:14:13.340Z,102853.72
2022-08-08T20:16:40.571Z,102851.28
2022-08-08T20:19:07.886Z,102846.28
2022-08-08T20:21:38.039Z,102854.53
2022-08-08T20:24:06.150Z,102854.84
2022-08-08T20:26:34.332Z,102860.44
2022-08-08T20:29:03.087Z,102860.88
2022-08-08T20:32:02.755Z,102856.59
2022-08-08T20:34:29.166Z,102860.50
2022-08-08T20:36:59.436Z,102861.00
2022-08-08T20:39:33.696Z,102858.75
2022-08-08T20:42:06.150Z,102861.66
2022-08-08T20:44:35.484Z,102865.34
2022-08-08T20:47:04.849Z,102860.25
2022-08-08T20:49:46.829Z,102860.44
2022-08-08T20:52:14.138Z,102858.84
2022-08-08T20:54:42.179Z,102855.53
2022-08-08T20:57:18.616Z,102856.81
2022-08-08T20:59:46.899Z,102861.34
2022-08-08T21:02:17.728Z,102858.88
2022-08-08T21:04:52.107Z,102859.84
2022-08-08T21:07:31.303Z,102863.53
2022-08-08T21:10:12.522Z,102858.72
2022-08-08T21:12:39.740Z,102858.81
2022-08-08T21:15:16.260Z,102857.13
2022-08-08T21:17:58.904Z,102861.00
2022-08-08T21:20:34.015Z,102860.25
2022-08-08T21:23:02.555Z,102863.16
2022-08-08T21:25:36.128Z,102869.50
2022-08-08T21:28:09.202Z,102870.63
2022-08-08T21:30:42.677Z,102874.41
2022-08-08T21:33:12.007Z,102874.06
2022-08-08T21:36:18.311Z,102876.13
2022-08-08T21:38:26.615Z,102872.81
2022-08-08T21:40:55.434Z,102868.81
2022-08-08T21:43:33.713Z,102869.84
2022-08-08T21:48:07.694Z,102867.38
2022-08-08T21:48:56.834Z,102866.81
2022-08-08T21:54:17.926Z,102871.50
2022-08-08T21:54:37.256Z,102869.91
2022-08-08T21:57:06.737Z,102863.94
2022-08-08T22:00:01.373Z,102864.13
2022-08-08T22:02:23.325Z,102873.00
2022-08-08T22:04:56.109Z,102861.69
2022-08-08T22:07:39.817Z,102867.16
2022-08-08T22:10:18.322Z,102864.88
2022-08-08T22:13:16.596Z,102872.22
2022-08-08T22:15:42.788Z,102874.00
2022-08-08T22:18:26.378Z,102875.22
2022-08-08T22:20:53.270Z,102878.97
2022-08-08T22:23:20.150Z,102879.16
2022-08-08T22:26:26.637Z,102884.53
2022-08-08T22:29:13.589Z,102883.75
2022-08-08T22:31:19.725Z,102880.44
2022-08-08T22:34:12.890Z,102879.72
2022-08-08T22:36:34.582Z,102879.88
2022-08-08T22:39:01.126Z,102878.50
2022-08-08T22:41:33.197Z,102883.03
2022-08-08T22:44:01.903Z,102879.78
2022-08-08T22:46:32.817Z,102882.53
2022-08-08T22:48:59.276Z,102879.13
2022-08-08T22:51:29.058Z,102875.78
2022-08-08T22:54:32.962Z,102875.09
2022-08-08T22:56:42.930Z,102881.50
2022-08-08T22:59:14.093Z,102880.03
2022-08-08T23:02:02.238Z,102880.38
2022-08-08T23:04:32.274Z,102880.75
2022-08-08T23:07:02.824Z,102886.38
2022-08-08T23:09:30.518Z,102885.00
2022-08-08T23:12:27.796Z,102891.47
2022-08-08T23:14:56.008Z,102889.81
2022-08-08T23:17:23.711Z,102884.72
2022-08-08T23:19:56.895Z,102887.53
2022-08-08T23:22:23.336Z,102889.56
2022-08-08T23:24:50.704Z,102888.03
2022-08-08T23:27:39.196Z,102888.38
2022-08-08T23:30:06.113Z,102899.06
2022-08-08T23:32:36.198Z,102895.75
2022-08-08T23:35:12.643Z,102894.22
2022-08-08T23:38:02.136Z,102901.50
2022-08-08T23:40:30.392Z,102907.88
2022-08-08T23:42:57.106Z,102902.66
2022-08-08T23:49:07.770Z,102910.94
2022-08-08T23:49:08.146Z,102907.78
2022-08-08T23:50:57.698Z,102912.31
2022-08-08T23:54:06.136Z,102910.56
2022-08-08T23:56:12.007Z,102915.09
2022-08-08T23:58:38.839Z,102909.81
